首页
METAR-TAF:

METAR-TAF

机场 :

格域機場, 英格兰

纬度: 51-09N, 经度: 000-11W, 海拔: 62米

当前天气观测

该预报发布于28分钟前的15:50 UTC
风速9节,风向南转西南,在西转西南之间变化
温度 17°C
湿度 82%
气压 998 hPa
能见度10公里或以上
散云层高于1500英尺
小阵雨

METAR: EGKK 231550Z 21009KT 170V240 9999 -SHRA SCT015 17/14 Q0998

时间: 17:18 (16:18 UTC)

预报

该预报发布于5小时和23分钟前的10:55 UTC
预报有效从23日的 12点(UTC)到 24日的 18点(UTC)
风速10节,风向南转西南
能见度10公里或以上
散云层高于2000英尺
短暂存在
从 23日的 12点(UTC)到 23日的 23点(UTC)
能見度: 6000
雨, 阵雨
几率 30% :
短暂存在
从 23日的 12点(UTC)到 23日的 17点(UTC)
能見度: 4000
多云层高于1400英尺
大阵雨
短暂存在
从 24日的 03点(UTC)到 24日的 18点(UTC)
能見度: 7000
阵雨
几率 30% :
短暂存在
从 24日的 04点(UTC)到 24日的 07点(UTC)
能見度: 4000
大阵雨
几率 30% :
短暂存在
从 24日的 04点(UTC)到 24日的 13点(UTC)
风速15节,风向西南,有时为25节阵风

TAF: EGKK 231055Z 2312/2418 21010KT 9999 SCT020 TEMPO 2312/2323 6000 RA SHRA PROB30 TEMPO 2312/2317 4000 +SHRA BKN014 TEMPO 2403/2418 7000 SHRA PROB30 TEMPO 2404/2407 4000 +SHRA PROB30 TEMPO 2404/2413 23015G25KT

超过4000个机场的气象观测和天气预报(METAR&TAF报告)。

可查询的气象台以黄色和红色小点在地图上表示。

将鼠标移到小点上方,可查看气象台名称。

然后点击查看天气观测和预报。

如需切换地图:点击带黑十字的绿色按钮放大地图;点击带横线的绿色按钮缩小地图;或者点击绿色箭头查看邻近地区的地图。


METAR-TAF: